createdAt,value
2018-01-20T00:01:05.375Z,7.77
2018-01-20T00:03:31.357Z,8.40
2018-01-20T00:05:58.009Z,8.47
2018-01-20T00:08:24.028Z,7.82
2018-01-20T00:11:02.344Z,8.38
2018-01-20T00:13:28.344Z,8.15
2018-01-20T00:15:55.597Z,9.20
2018-01-20T00:18:24.442Z,8.43
2018-01-20T00:20:56.410Z,8.05
2018-01-20T00:23:22.469Z,9.38
2018-01-20T00:25:54.619Z,8.52
2018-01-20T00:28:20.671Z,8.80
2018-01-20T00:30:46.681Z,7.82
2018-01-20T00:33:14.640Z,8.30
2018-01-20T00:35:43.892Z,9.20
2018-01-20T00:38:10.196Z,9.88
2018-01-20T00:40:36.211Z,8.85
2018-01-20T00:43:02.142Z,8.85
2018-01-20T00:45:28.094Z,8.87
2018-01-20T00:47:55.201Z,8.80
2018-01-20T00:50:21.947Z,8.13
2018-01-20T00:52:47.927Z,8.38
2018-01-20T00:55:13.914Z,8.53
2018-01-20T00:57:39.899Z,10.73
2018-01-20T01:00:05.882Z,8.27
2018-01-20T01:02:32.713Z,8.98
2018-01-20T01:04:58.687Z,8.52
2018-01-20T01:07:25.378Z,7.70
2018-01-20T01:09:51.344Z,8.90
2018-01-20T01:12:17.334Z,8.07
2018-01-20T01:14:43.286Z,8.57
2018-01-20T01:17:10.049Z,8.53
2018-01-20T01:19:35.979Z,8.70
2018-01-20T01:22:01.939Z,8.80
2018-01-20T01:24:27.883Z,9.27
2018-01-20T01:26:54.641Z,8.50
2018-01-20T01:29:20.596Z,8.27
2018-01-20T01:31:46.556Z,8.43
2018-01-20T01:34:12.515Z,9.20
2018-01-20T01:36:39.088Z,8.03
2018-01-20T01:39:05.027Z,9.95
2018-01-20T01:41:31.035Z,7.93
2018-01-20T01:43:56.970Z,7.00
2018-01-20T01:46:22.910Z,8.47
2018-01-20T01:48:50.676Z,6.80
2018-01-20T01:51:16.679Z,8.05
2018-01-20T01:53:43.631Z,6.43
2018-01-20T01:56:09.582Z,6.37
2018-01-20T01:58:35.605Z,7.23
2018-01-20T02:01:01.545Z,6.57
2018-01-20T02:03:27.533Z,6.83
2018-01-20T02:05:53.476Z,5.97
2018-01-20T02:08:19.419Z,6.40
2018-01-20T02:10:45.931Z,5.80
2018-01-20T02:13:11.909Z,6.45
2018-01-20T02:15:37.860Z,6.30
2018-01-20T02:18:03.835Z,5.80
2018-01-20T02:20:29.830Z,5.60
2018-01-20T02:22:55.816Z,5.40
2018-01-20T02:25:22.512Z,5.70
2018-01-20T02:27:48.456Z,5.35
2018-01-20T02:30:14.429Z,5.60
2018-01-20T02:32:41.136Z,7.03
2018-01-20T02:35:07.095Z,5.55
2018-01-20T02:37:33.119Z,6.00
2018-01-20T02:39:59.095Z,5.82
2018-01-20T02:42:25.060Z,6.00
2018-01-20T02:44:51.028Z,7.17
2018-01-20T02:47:16.951Z,7.20
2018-01-20T02:49:42.902Z,5.80
2018-01-20T02:52:08.888Z,6.53
2018-01-20T02:54:34.858Z,5.87
2018-01-20T02:57:00.849Z,6.27
2018-01-20T02:59:27.548Z,6.80
2018-01-20T03:01:53.488Z,6.87
2018-01-20T03:04:19.453Z,7.40
2018-01-20T03:06:45.472Z,6.30
2018-01-20T03:09:11.410Z,7.85
2018-01-20T03:11:37.408Z,7.17
2018-01-20T03:14:03.430Z,7.30
2018-01-20T03:16:29.375Z,6.75
2018-01-20T03:18:56.124Z,6.87
2018-01-20T03:21:22.147Z,7.90
2018-01-20T03:23:48.138Z,6.45
2018-01-20T03:26:14.119Z,7.57
2018-01-20T03:28:40.094Z,8.13
2018-01-20T03:31:06.660Z,8.10
2018-01-20T03:33:32.638Z,7.30
2018-01-20T03:35:58.606Z,8.63
2018-01-20T03:38:24.596Z,8.20
2018-01-20T03:40:50.522Z,8.57
2018-01-20T03:43:16.494Z,9.13
2018-01-20T03:45:42.426Z,8.80
2018-01-20T03:48:08.435Z,10.57
2018-01-20T03:50:34.529Z,8.93
2018-01-20T03:53:00.579Z,9.02
2018-01-20T03:55:26.762Z,8.60
2018-01-20T03:57:52.738Z,8.45
2018-01-20T04:00:19.461Z,8.33
2018-01-20T04:02:45.440Z,8.40
2018-01-20T04:05:11.510Z,8.43
2018-01-20T04:07:37.496Z,8.68
2018-01-20T04:10:03.456Z,8.97
2018-01-20T04:12:29.435Z,9.03
2018-01-20T04:14:55.384Z,8.20
2018-01-20T04:17:21.384Z,8.30
2018-01-20T04:19:47.424Z,7.50
2018-01-20T04:22:13.398Z,7.62
2018-01-20T04:24:39.423Z,7.33
2018-01-20T04:27:05.494Z,7.90
2018-01-20T04:29:31.431Z,7.62
2018-01-20T04:31:57.432Z,7.77
2018-01-20T04:34:23.406Z,7.20
2018-01-20T04:36:49.412Z,7.23
2018-01-20T04:39:16.167Z,7.00
2018-01-20T04:41:42.115Z,6.93
2018-01-20T04:44:08.903Z,7.87
2018-01-20T04:46:34.908Z,6.30
2018-01-20T04:49:00.977Z,6.03
2018-01-20T04:51:26.938Z,6.97
2018-01-20T04:53:52.946Z,6.67
2018-01-20T04:56:18.895Z,6.93
2018-01-20T04:58:44.853Z,6.70
2018-01-20T05:01:10.861Z,6.37
2018-01-20T05:03:36.863Z,5.25
2018-01-20T05:06:02.783Z,5.37
2018-01-20T05:08:28.812Z,6.30
2018-01-20T05:10:54.787Z,5.43
2018-01-20T05:13:20.775Z,5.23
2018-01-20T05:15:47.432Z,5.15
2018-01-20T05:18:13.407Z,5.62
2018-01-20T05:20:39.360Z,5.17
2018-01-20T05:23:05.403Z,5.07
2018-01-20T05:25:31.395Z,4.78
2018-01-20T05:27:58.122Z,4.53
2018-01-20T05:30:24.085Z,4.43
2018-01-20T05:32:50.121Z,4.47
2018-01-20T05:35:16.101Z,4.20
2018-01-20T05:37:42.838Z,4.33
2018-01-20T05:40:09.662Z,4.65
2018-01-20T05:42:35.678Z,4.00
2018-01-20T05:45:01.674Z,4.78
2018-01-20T05:47:27.647Z,3.90
2018-01-20T05:49:53.583Z,4.10
2018-01-20T05:52:19.527Z,5.43
2018-01-20T05:54:45.460Z,4.37
2018-01-20T05:57:11.406Z,3.83
2018-01-20T05:59:37.374Z,3.40
2018-01-20T06:02:04.095Z,4.10
2018-01-20T06:04:30.051Z,3.80
2018-01-20T06:06:55.990Z,3.83
2018-01-20T06:09:21.926Z,4.17
2018-01-20T06:11:47.907Z,4.23
2018-01-20T06:14:13.856Z,4.30
2018-01-20T06:16:39.826Z,4.27
2018-01-20T06:19:06.518Z,3.90
2018-01-20T06:21:32.579Z,3.95
2018-01-20T06:23:58.621Z,4.35
2018-01-20T06:26:24.609Z,4.10
2018-01-20T06:28:51.322Z,4.10
2018-01-20T06:31:17.299Z,5.55
2018-01-20T06:33:43.297Z,4.60
2018-01-20T06:36:09.299Z,4.57
2018-01-20T06:38:35.376Z,4.30
2018-01-20T06:41:01.338Z,4.10
2018-01-20T06:43:27.287Z,4.73
2018-01-20T06:45:53.318Z,4.80
2018-01-20T06:48:20.034Z,4.20
2018-01-20T06:50:46.132Z,4.75
2018-01-20T06:53:12.091Z,3.90
2018-01-20T06:55:38.120Z,4.77
2018-01-20T06:58:04.091Z,4.70
2018-01-20T07:00:30.047Z,4.67
2018-01-20T07:02:56.021Z,5.20
2018-01-20T07:05:21.941Z,4.93
2018-01-20T07:07:47.907Z,5.13
2018-01-20T07:10:13.963Z,5.27
2018-01-20T07:12:40.009Z,4.82
2018-01-20T07:15:05.979Z,5.30
2018-01-20T07:17:32.130Z,4.90
2018-01-20T07:19:58.071Z,5.62
2018-01-20T07:22:24.072Z,5.60
2018-01-20T07:24:50.049Z,5.85
2018-01-20T07:27:16.608Z,6.07
2018-01-20T07:29:42.582Z,6.03
2018-01-20T07:32:08.539Z,6.00
2018-01-20T07:34:34.495Z,6.27
2018-01-20T07:37:02.015Z,6.90
2018-01-20T07:39:28.029Z,6.50
2018-01-20T07:41:54.036Z,6.50
2018-01-20T07:44:20.726Z,6.37
2018-01-20T07:46:47.466Z,9.50
2018-01-20T07:49:14.304Z,6.45
2018-01-20T07:51:40.995Z,6.95
2018-01-20T07:54:07.046Z,5.90
2018-01-20T07:56:33.243Z,7.45
2018-01-20T07:58:59.203Z,6.78
2018-01-20T08:01:26.997Z,6.03
2018-01-20T08:03:52.910Z,7.50
2018-01-20T08:06:18.911Z,7.30
2018-01-20T08:08:46.593Z,7.35
2018-01-20T08:11:12.586Z,6.82
2018-01-20T08:13:38.524Z,6.37
2018-01-20T08:16:04.458Z,6.03
2018-01-20T08:18:30.448Z,7.00
2018-01-20T08:20:56.614Z,6.60
2018-01-20T08:23:22.633Z,6.60
2018-01-20T08:25:48.664Z,7.70
2018-01-20T08:28:16.904Z,7.47
2018-01-20T08:30:42.930Z,7.90
2018-01-20T08:35:40.533Z,6.65
2018-01-20T08:38:06.510Z,7.40
2018-01-20T08:40:32.568Z,7.33
2018-01-20T08:42:58.567Z,6.68
2018-01-20T08:45:24.633Z,6.80
2018-01-20T08:47:50.635Z,7.05
2018-01-20T08:50:16.666Z,5.95
2018-01-20T08:52:42.703Z,5.68
2018-01-20T08:55:08.733Z,6.05
2018-01-20T08:57:34.721Z,6.62
2018-01-20T09:00:00.681Z,6.97
2018-01-20T09:02:29.481Z,7.00
2018-01-20T09:04:55.484Z,6.43
2018-01-20T09:07:21.690Z,6.28
2018-01-20T09:09:48.536Z,6.45
2018-01-20T09:12:15.266Z,7.05
2018-01-20T09:14:41.474Z,6.72
2018-01-20T09:17:09.501Z,8.50
2018-01-20T09:19:35.483Z,6.50
2018-01-20T09:22:03.172Z,6.93
2018-01-20T09:24:30.433Z,6.95
2018-01-20T09:27:00.244Z,6.40
2018-01-20T09:29:27.306Z,7.05
2018-01-20T09:31:56.246Z,6.70
2018-01-20T09:34:23.235Z,7.00
2018-01-20T09:36:50.076Z,6.23
2018-01-20T09:39:18.556Z,6.40
2018-01-20T09:41:45.894Z,6.65
2018-01-20T09:44:11.918Z,6.20
2018-01-20T09:46:42.018Z,6.10
2018-01-20T09:49:13.034Z,6.33
2018-01-20T09:51:40.189Z,6.50
2018-01-20T09:54:06.736Z,6.00
2018-01-20T09:56:36.157Z,6.10
2018-01-20T09:59:03.521Z,6.70
2018-01-20T10:01:30.443Z,6.63
2018-01-20T10:03:57.054Z,6.20
2018-01-20T10:06:23.083Z,5.90
2018-01-20T10:08:49.871Z,6.37
2018-01-20T10:11:18.461Z,6.27
2018-01-20T10:13:45.551Z,5.90
2018-01-20T10:16:12.312Z,6.78
2018-01-20T10:18:38.370Z,5.95
2018-01-20T10:21:08.944Z,5.80
2018-01-20T10:23:35.099Z,5.97
2018-01-20T10:26:01.866Z,5.72
2018-01-20T10:28:28.960Z,6.65
2018-01-20T10:30:58.495Z,5.95
2018-01-20T10:33:27.743Z,5.95
2018-01-20T10:35:53.690Z,6.07
2018-01-20T10:38:21.306Z,6.77
2018-01-20T10:40:52.451Z,6.33
2018-01-20T10:43:23.435Z,6.20
2018-01-20T10:45:49.692Z,8.50
2018-01-20T10:48:16.233Z,6.28
2018-01-20T10:50:45.378Z,5.62
2018-01-20T10:53:12.497Z,6.13
2018-01-20T10:55:40.294Z,7.33
2018-01-20T10:58:06.281Z,4.83
2018-01-20T11:00:34.152Z,5.33
2018-01-20T11:03:01.452Z,6.63
2018-01-20T11:05:28.629Z,6.10
2018-01-20T11:07:56.175Z,8.30
2018-01-20T11:10:23.090Z,10.60
2018-01-20T11:12:49.874Z,5.10
2018-01-20T11:15:15.895Z,6.05
2018-01-20T11:17:43.085Z,5.53
2018-01-20T11:20:09.995Z,5.80
2018-01-20T11:22:37.484Z,5.47
2018-01-20T11:25:04.447Z,4.50
2018-01-20T11:27:31.363Z,5.40
2018-01-20T11:29:57.804Z,5.30
2018-01-20T11:32:23.823Z,4.83
2018-01-20T11:34:50.102Z,4.90
2018-01-20T11:37:16.238Z,5.90
2018-01-20T11:39:43.286Z,5.90
2018-01-20T11:42:12.690Z,5.13
2018-01-20T11:44:41.179Z,5.90
2018-01-20T11:47:08.251Z,5.37
2018-01-20T11:49:34.577Z,5.83
2018-01-20T11:54:32.545Z,5.47
2018-01-20T11:57:01.485Z,5.83
2018-01-20T11:59:28.403Z,50.07
2018-01-20T12:01:54.528Z,32.50
2018-01-20T12:04:20.891Z,6.60
2018-01-20T12:06:46.920Z,6.13
2018-01-20T12:09:14.117Z,5.80
2018-01-20T12:11:40.365Z,6.37
2018-01-20T12:14:06.948Z,6.80
2018-01-20T12:16:34.925Z,6.50
2018-01-20T12:19:00.992Z,6.90
2018-01-20T12:21:27.067Z,6.80
2018-01-20T12:26:26.863Z,7.43
2018-01-20T12:28:53.749Z,6.63
2018-01-20T12:31:19.921Z,7.60
2018-01-20T12:33:47.041Z,6.70
2018-01-20T12:36:13.353Z,7.23
2018-01-20T12:38:40.167Z,6.80
2018-01-20T12:41:06.252Z,8.20
2018-01-20T12:43:32.275Z,7.60
2018-01-20T12:45:58.294Z,7.47
2018-01-20T12:48:25.084Z,6.73
2018-01-20T12:50:51.422Z,7.93
2018-01-20T12:53:17.450Z,6.77
2018-01-20T12:55:44.342Z,7.47
2018-01-20T12:58:10.419Z,7.37
2018-01-20T13:00:37.612Z,7.90
2018-01-20T13:03:05.457Z,8.00
2018-01-20T13:05:31.506Z,7.83
2018-01-20T13:07:57.476Z,7.30
2018-01-20T13:10:23.574Z,6.80
2018-01-20T13:12:49.542Z,6.97
2018-01-20T13:15:15.592Z,7.10
2018-01-20T13:17:41.558Z,6.95
2018-01-20T13:20:07.479Z,6.67
2018-01-20T13:22:33.497Z,8.30
2018-01-20T13:25:04.167Z,11.97
2018-01-20T13:27:32.744Z,6.90
2018-01-20T13:29:59.776Z,5.50
2018-01-20T13:32:25.805Z,6.10
2018-01-20T13:34:51.763Z,5.82
2018-01-20T13:37:17.773Z,6.17
2018-01-20T13:39:47.090Z,7.10
2018-01-20T13:42:14.650Z,6.50
2018-01-20T13:44:41.479Z,6.10
2018-01-20T13:47:07.463Z,6.40
2018-01-20T13:49:33.533Z,6.10
2018-01-20T13:52:00.025Z,4.90
2018-01-20T13:54:27.639Z,5.80
2018-01-20T13:56:53.862Z,4.95
2018-01-20T13:59:21.122Z,5.70
2018-01-20T14:01:47.145Z,4.73
2018-01-20T14:04:14.935Z,5.57
2018-01-20T14:06:42.921Z,5.67
2018-01-20T14:09:09.683Z,5.77
2018-01-20T14:11:35.638Z,5.50
2018-01-20T14:14:02.400Z,6.40
2018-01-20T14:16:28.539Z,6.90
2018-01-20T14:18:54.570Z,7.40
2018-01-20T14:21:20.595Z,7.53
2018-01-20T14:23:47.479Z,9.50
2018-01-20T14:26:14.209Z,13.00
2018-01-20T14:28:40.282Z,6.33
2018-01-20T14:31:06.535Z,6.13
2018-01-20T14:33:32.680Z,5.50
2018-01-20T14:35:58.757Z,4.85
2018-01-20T14:38:24.765Z,4.83
2018-01-20T14:40:51.010Z,4.97
2018-01-20T14:43:17.927Z,4.73
2018-01-20T14:45:44.026Z,4.30
2018-01-20T14:48:10.063Z,5.03
2018-01-20T14:50:36.906Z,4.97
2018-01-20T14:53:02.924Z,4.83
2018-01-20T14:55:29.719Z,5.07
2018-01-20T14:57:55.777Z,4.10
2018-01-20T15:00:24.216Z,4.33
2018-01-20T15:02:51.295Z,35.10
2018-01-20T15:05:18.485Z,61.50
2018-01-20T15:07:44.823Z,20.93
2018-01-20T15:10:10.801Z,4.60
2018-01-20T15:12:37.891Z,3.97
2018-01-20T15:15:04.842Z,4.70
2018-01-20T15:17:30.860Z,4.20
2018-01-20T15:19:57.374Z,4.20
2018-01-20T15:22:24.142Z,4.40
2018-01-20T15:24:50.112Z,3.60
2018-01-20T15:27:16.185Z,3.93
2018-01-20T15:29:43.002Z,4.20
2018-01-20T15:32:09.028Z,4.27
2018-01-20T15:34:35.049Z,4.17
2018-01-20T15:37:01.592Z,4.03
2018-01-20T15:39:27.642Z,4.80
2018-01-20T15:41:54.225Z,4.03
2018-01-20T15:44:20.247Z,4.67
2018-01-20T15:46:46.397Z,4.70
2018-01-20T15:49:13.962Z,4.22
2018-01-20T15:51:40.547Z,4.50
2018-01-20T15:54:07.280Z,4.03
2018-01-20T15:56:36.028Z,4.30
2018-01-20T15:59:02.859Z,4.62
2018-01-20T16:01:29.717Z,5.03
2018-01-20T16:03:55.961Z,4.90
2018-01-20T16:06:25.034Z,4.80
2018-01-20T16:08:51.160Z,4.20
2018-01-20T16:11:17.232Z,4.10
2018-01-20T16:13:44.768Z,4.37
2018-01-20T16:16:10.785Z,4.05
2018-01-20T16:18:39.693Z,4.68
2018-01-20T16:21:06.605Z,3.78
2018-01-20T16:23:34.123Z,3.60
2018-01-20T16:26:00.915Z,3.20
2018-01-20T16:28:27.685Z,3.45
2018-01-20T16:30:53.994Z,43.20
2018-01-20T16:33:20.304Z,14.07
2018-01-20T16:35:47.573Z,18.90
2018-01-20T16:38:13.610Z,6.32
2018-01-20T16:40:39.827Z,3.77
2018-01-20T16:43:06.824Z,3.60
2018-01-20T16:45:33.626Z,3.60
2018-01-20T16:48:01.212Z,3.58
2018-01-20T16:50:27.305Z,4.20
2018-01-20T16:52:53.657Z,3.85
2018-01-20T16:55:19.747Z,3.90
2018-01-20T16:57:46.465Z,4.12
2018-01-20T17:00:12.659Z,6.28
2018-01-20T17:02:38.931Z,4.13
2018-01-20T17:05:05.104Z,5.75
2018-01-20T17:07:31.228Z,5.57
2018-01-20T17:09:58.171Z,4.25
2018-01-20T17:12:24.993Z,3.65
2018-01-20T17:14:51.348Z,4.40
2018-01-20T17:17:18.011Z,4.75
2018-01-20T17:19:44.289Z,4.05
2018-01-20T17:22:10.298Z,4.57
2018-01-20T17:24:36.381Z,4.95
2018-01-20T17:27:02.610Z,5.30
2018-01-20T17:29:28.715Z,4.87
2018-01-20T17:31:54.724Z,5.03
2018-01-20T17:34:21.090Z,6.28
2018-01-20T17:36:47.136Z,7.30
2018-01-20T17:39:13.382Z,5.32
2018-01-20T17:41:39.661Z,6.00
2018-01-20T17:44:05.909Z,4.97
2018-01-20T17:46:31.947Z,5.75
2018-01-20T17:48:58.147Z,5.03
2018-01-20T17:51:24.419Z,6.12
2018-01-20T17:53:50.459Z,5.12
2018-01-20T17:56:17.467Z,5.82
2018-01-20T17:58:43.470Z,5.97
2018-01-20T18:01:10.488Z,5.37
2018-01-20T18:03:37.536Z,6.18
2018-01-20T18:06:03.574Z,4.72
2018-01-20T18:08:29.546Z,6.60
2018-01-20T18:10:56.138Z,5.03
2018-01-20T18:13:23.930Z,4.40
2018-01-20T18:15:50.227Z,5.95
2018-01-20T18:18:18.884Z,8.00
2018-01-20T18:20:47.825Z,8.90
2018-01-20T18:23:16.488Z,6.50
2018-01-20T18:25:42.524Z,7.55
2018-01-20T18:28:09.443Z,18.60
2018-01-20T18:30:35.560Z,11.43
2018-01-20T18:33:03.283Z,11.55
2018-01-20T18:35:30.703Z,7.65
2018-01-20T18:38:01.254Z,7.20
2018-01-20T18:40:28.166Z,7.90
2018-01-20T18:42:55.231Z,7.30
2018-01-20T18:45:22.593Z,6.85
2018-01-20T18:47:48.620Z,7.18
2018-01-20T18:50:14.607Z,7.55
2018-01-20T18:52:40.867Z,9.73
2018-01-20T18:55:06.893Z,14.90
2018-01-20T18:57:32.871Z,15.55
2018-01-20T19:02:33.361Z,14.13
2018-01-20T19:04:59.450Z,13.48
2018-01-20T19:07:25.449Z,13.45
2018-01-20T19:09:57.728Z,14.07
2018-01-20T19:12:23.876Z,12.45
2018-01-20T19:14:50.538Z,14.48
2018-01-20T19:17:21.091Z,16.33
2018-01-20T19:19:48.712Z,16.20
2018-01-20T19:22:15.804Z,16.48
2018-01-20T19:24:42.948Z,16.25
2018-01-20T19:27:09.010Z,15.35
2018-01-20T19:29:35.819Z,16.40
2018-01-20T19:32:01.928Z,15.45
2018-01-20T19:34:28.717Z,15.45
2018-01-20T19:36:55.507Z,15.18
2018-01-20T19:39:21.721Z,16.45
2018-01-20T19:41:48.883Z,16.23
2018-01-20T19:44:17.045Z,16.62
2018-01-20T19:46:44.077Z,16.58
2018-01-20T19:49:10.083Z,17.25
2018-01-20T19:51:37.571Z,15.50
2018-01-20T19:54:06.965Z,14.75
2018-01-20T19:59:06.123Z,14.75
2018-01-20T20:01:33.578Z,16.25
2018-01-20T20:04:02.947Z,16.27
2018-01-20T20:06:33.583Z,16.12
2018-01-20T20:11:38.407Z,21.65
2018-01-20T20:14:06.136Z,18.15
2018-01-20T20:16:32.559Z,18.05
2018-01-20T20:18:59.088Z,17.20
2018-01-20T20:23:58.452Z,17.17
2018-01-20T20:26:27.423Z,17.08
2018-01-20T20:31:29.944Z,15.43
2018-01-20T20:33:57.560Z,15.85
2018-01-20T20:36:23.655Z,17.50
2018-01-20T20:38:55.022Z,17.70
2018-01-20T20:43:57.157Z,16.73
2018-01-20T20:46:29.971Z,16.23
2018-01-20T20:51:33.553Z,17.45
2018-01-20T20:56:32.594Z,20.45
2018-01-20T20:58:58.768Z,17.45
2018-01-20T21:01:28.609Z,16.48
2018-01-20T21:03:58.586Z,18.45
2018-01-20T21:11:34.084Z,18.00
2018-01-20T21:14:00.325Z,19.23
2018-01-20T21:16:28.236Z,17.27
2018-01-20T21:18:56.664Z,16.70
2018-01-20T21:21:22.783Z,17.12
2018-01-20T21:23:49.577Z,16.30
2018-01-20T21:26:20.768Z,15.88
2018-01-20T21:28:51.453Z,14.57
2018-01-20T21:31:19.873Z,17.87
2018-01-20T21:33:47.930Z,36.95
2018-01-20T21:36:19.003Z,15.88
2018-01-20T21:38:45.837Z,16.05
2018-01-20T21:41:14.384Z,17.25
2018-01-20T21:43:42.015Z,17.37
2018-01-20T21:46:08.841Z,16.02
2018-01-20T21:48:35.844Z,15.63
2018-01-20T21:51:02.689Z,16.17
2018-01-20T21:53:29.822Z,15.50
2018-01-20T21:55:56.061Z,15.40
2018-01-20T21:58:22.163Z,15.90
2018-01-20T22:00:48.233Z,15.48
2018-01-20T22:03:14.540Z,15.57
2018-01-20T22:05:40.813Z,16.42
2018-01-20T22:08:10.956Z,17.73
2018-01-20T22:10:37.975Z,17.10
2018-01-20T22:15:35.130Z,16.10
2018-01-20T22:18:01.250Z,16.42
2018-01-20T22:20:27.274Z,14.77
2018-01-20T22:22:53.277Z,17.52
2018-01-20T22:25:19.497Z,17.58
2018-01-20T22:27:45.487Z,17.33
2018-01-20T22:30:12.495Z,15.73
2018-01-20T22:32:38.543Z,15.00
2018-01-20T22:35:04.812Z,17.60
2018-01-20T22:42:32.305Z,15.88
2018-01-20T22:44:58.433Z,15.60
2018-01-20T22:47:27.218Z,15.95
2018-01-20T22:49:53.404Z,15.70
2018-01-20T22:52:19.482Z,15.55
2018-01-20T22:54:45.490Z,16.43
2018-01-20T22:57:11.543Z,16.40
2018-01-20T22:59:37.545Z,16.00
2018-01-20T23:02:04.619Z,17.45
2018-01-20T23:04:30.605Z,16.05
2018-01-20T23:06:57.425Z,15.15
2018-01-20T23:09:24.483Z,15.38
2018-01-20T23:11:52.245Z,16.45
2018-01-20T23:14:19.086Z,17.47
2018-01-20T23:16:46.253Z,18.73
2018-01-20T23:19:12.339Z,17.37
2018-01-20T23:21:39.890Z,17.35
2018-01-20T23:24:06.974Z,17.10
2018-01-20T23:26:33.918Z,17.60
2018-01-20T23:29:00.239Z,18.45
2018-01-20T23:31:26.284Z,18.87
2018-01-20T23:33:52.259Z,19.12
2018-01-20T23:36:18.505Z,19.40
2018-01-20T23:38:44.615Z,20.37
2018-01-20T23:41:11.452Z,19.98
2018-01-20T23:43:37.563Z,19.45
2018-01-20T23:48:35.505Z,17.48
2018-01-20T23:51:06.166Z,17.67
2018-01-20T23:53:32.216Z,17.17
2018-01-20T23:55:58.969Z,18.50
2018-01-20T23:58:25.000Z,15.32
